createdAt,value
2023-05-01T00:01:28.971Z,5.82
2023-05-01T00:04:18.064Z,4.40
2023-05-01T00:07:08.310Z,4.53
2023-05-01T00:09:57.327Z,3.70
2023-05-01T00:12:46.301Z,4.55
2023-05-01T00:15:35.145Z,5.15
2023-05-01T00:18:24.000Z,4.53
2023-05-01T00:21:12.809Z,4.75
2023-05-01T00:24:02.941Z,4.70
2023-05-01T00:26:51.655Z,5.10
2023-05-01T00:29:40.704Z,6.15
2023-05-01T00:32:29.530Z,4.60
2023-05-01T00:35:18.539Z,4.75
2023-05-01T00:38:07.337Z,4.40
2023-05-01T00:40:57.563Z,4.60
2023-05-01T00:43:46.404Z,4.07
2023-05-01T00:46:35.844Z,4.53
2023-05-01T00:49:24.667Z,4.90
2023-05-01T00:52:13.473Z,4.30
2023-05-01T00:55:02.088Z,4.80
2023-05-01T00:57:51.967Z,4.25
2023-05-01T01:00:42.334Z,4.73
2023-05-01T01:03:31.430Z,7.80
2023-05-01T01:06:25.413Z,6.05
2023-05-01T01:09:19.355Z,8.50
2023-05-01T01:12:11.479Z,7.05
2023-05-01T01:15:09.057Z,6.30
2023-05-01T01:18:01.018Z,6.70
2023-05-01T01:20:51.959Z,5.90
2023-05-01T01:23:56.107Z,7.00
2023-05-01T01:26:59.397Z,7.18
2023-05-01T01:29:58.680Z,6.18
2023-05-01T01:33:01.610Z,6.65
2023-05-01T01:35:55.804Z,6.70
2023-05-01T01:38:47.571Z,7.40
2023-05-01T01:41:38.085Z,9.20
2023-05-01T01:44:34.840Z,8.75
2023-05-01T01:47:32.040Z,7.28
2023-05-01T01:50:23.690Z,7.93
2023-05-01T01:53:17.427Z,7.68
2023-05-01T01:56:07.962Z,7.80
2023-05-01T01:58:58.078Z,9.17
2023-05-01T02:01:47.609Z,8.07
2023-05-01T02:04:37.155Z,9.63
2023-05-01T02:07:27.162Z,7.53
2023-05-01T02:10:18.434Z,9.43
2023-05-01T02:13:07.449Z,8.00
2023-05-01T02:15:57.267Z,7.32
2023-05-01T02:18:46.711Z,7.95
2023-05-01T02:21:36.271Z,7.55
2023-05-01T02:24:25.984Z,7.32
2023-05-01T02:27:19.753Z,7.23
2023-05-01T02:30:09.402Z,7.30
2023-05-01T02:32:58.524Z,7.82
2023-05-01T02:35:47.949Z,7.32
2023-05-01T02:38:36.534Z,7.40
2023-05-01T02:41:27.741Z,7.03
2023-05-01T02:44:18.986Z,7.18
2023-05-01T02:47:10.174Z,7.82
2023-05-01T02:49:59.752Z,7.30
2023-05-01T02:52:49.199Z,7.80
2023-05-01T02:55:37.957Z,6.72
2023-05-01T02:58:26.805Z,8.68
2023-05-01T03:01:17.013Z,7.50
2023-05-01T03:04:05.913Z,7.20
2023-05-01T03:06:55.212Z,8.23
2023-05-01T03:09:43.680Z,9.20
2023-05-01T03:12:32.335Z,7.30
2023-05-01T03:15:20.886Z,7.00
2023-05-01T03:18:10.835Z,7.20
2023-05-01T03:20:59.357Z,7.00
2023-05-01T03:23:47.913Z,6.53
2023-05-01T03:26:36.442Z,6.75
2023-05-01T03:29:24.971Z,6.50
2023-05-01T03:32:13.528Z,6.10
2023-05-01T03:35:03.460Z,6.97
2023-05-01T03:37:51.911Z,7.20
2023-05-01T03:40:40.341Z,6.40
2023-05-01T03:43:28.792Z,6.82
2023-05-01T03:46:17.408Z,6.60
2023-05-01T03:49:06.479Z,6.97
2023-05-01T03:51:56.705Z,7.63
2023-05-01T03:54:45.655Z,7.07
2023-05-01T03:57:34.520Z,7.93
2023-05-01T04:00:22.988Z,8.32
2023-05-01T04:03:11.593Z,7.13
2023-05-01T04:06:00.254Z,6.65
2023-05-01T04:08:50.107Z,8.30
2023-05-01T04:11:38.557Z,8.00
2023-05-01T04:14:27.008Z,8.13
2023-05-01T04:17:15.472Z,7.17
2023-05-01T04:20:05.527Z,7.93
2023-05-01T04:22:55.033Z,7.47
2023-05-01T04:25:46.027Z,8.38
2023-05-01T04:28:34.505Z,7.88
2023-05-01T04:31:23.112Z,8.07
2023-05-01T04:34:11.595Z,6.90
2023-05-01T04:37:00.062Z,6.60
2023-05-01T04:39:48.618Z,6.43
2023-05-01T04:42:38.597Z,8.33
2023-05-01T04:45:27.194Z,7.93
2023-05-01T04:48:15.674Z,7.60
2023-05-01T04:51:04.598Z,7.00
2023-05-01T04:53:53.653Z,6.60
2023-05-01T04:56:42.192Z,6.10
2023-05-01T04:59:32.074Z,6.20
2023-05-01T05:02:20.693Z,5.70
2023-05-01T05:05:09.752Z,5.93
2023-05-01T05:07:58.256Z,6.10
2023-05-01T05:10:46.633Z,6.35
2023-05-01T05:13:35.120Z,6.55
2023-05-01T05:16:25.105Z,5.82
2023-05-01T05:19:13.823Z,5.50
2023-05-01T05:22:03.930Z,5.22
2023-05-01T05:24:55.377Z,5.75
2023-05-01T05:27:43.799Z,6.00
2023-05-01T05:30:32.313Z,5.20
2023-05-01T05:33:22.850Z,5.72
2023-05-01T05:36:11.312Z,5.25
2023-05-01T05:39:01.070Z,5.35
2023-05-01T05:41:49.536Z,4.83
2023-05-01T05:44:39.266Z,5.03
2023-05-01T05:47:27.684Z,5.03
2023-05-01T05:50:17.715Z,4.68
2023-05-01T05:53:06.455Z,5.38
2023-05-01T05:55:54.861Z,5.00
2023-05-01T05:58:43.376Z,5.10
2023-05-01T06:01:32.384Z,4.60
2023-05-01T06:04:20.970Z,4.17
2023-05-01T06:07:10.875Z,5.00
2023-05-01T06:10:04.193Z,4.43
2023-05-01T06:12:59.485Z,4.03
2023-05-01T06:16:01.367Z,4.60
2023-05-01T06:18:50.089Z,4.38
2023-05-01T06:21:38.904Z,4.83
2023-05-01T06:24:29.117Z,4.32
2023-05-01T06:27:17.608Z,5.78
2023-05-01T06:30:06.912Z,5.03
2023-05-01T06:32:55.630Z,5.22
2023-05-01T06:35:44.250Z,4.30
2023-05-01T06:38:33.086Z,6.45
2023-05-01T06:41:23.360Z,4.90
2023-05-01T06:44:11.830Z,4.77
2023-05-01T06:47:01.986Z,4.80
2023-05-01T06:49:50.637Z,5.20
2023-05-01T06:52:39.037Z,4.72
2023-05-01T06:55:31.482Z,6.22
2023-05-01T06:58:23.919Z,5.78
2023-05-01T07:01:13.131Z,5.30
2023-05-01T07:04:01.918Z,4.63
2023-05-01T07:06:50.555Z,5.88
2023-05-01T07:09:39.268Z,6.38
2023-05-01T07:12:27.875Z,6.28
2023-05-01T07:15:17.736Z,4.72
2023-05-01T07:18:07.015Z,6.43
2023-05-01T07:20:55.661Z,5.43
2023-05-01T07:23:44.259Z,5.03
2023-05-01T07:26:32.786Z,4.93
2023-05-01T07:29:21.281Z,5.85
2023-05-01T07:32:11.584Z,6.25
2023-05-01T07:35:00.376Z,4.95
2023-05-01T07:37:51.709Z,4.25
2023-05-01T07:40:40.197Z,5.70
2023-05-01T07:43:28.607Z,4.03
2023-05-01T07:46:17.152Z,4.00
2023-05-01T07:49:07.415Z,4.30
2023-05-01T07:51:56.495Z,3.83
2023-05-01T07:54:45.032Z,4.22
2023-05-01T07:57:34.164Z,4.20
2023-05-01T08:00:22.933Z,4.60
2023-05-01T08:03:11.626Z,4.65
2023-05-01T08:06:02.080Z,4.22
2023-05-01T08:08:50.605Z,4.00
2023-05-01T08:11:39.161Z,4.37
2023-05-01T08:14:27.638Z,4.93
2023-05-01T08:17:16.234Z,4.90
2023-05-01T08:20:05.273Z,4.30
2023-05-01T08:22:55.229Z,4.75
2023-05-01T08:25:46.788Z,3.80
2023-05-01T08:28:37.636Z,4.97
2023-05-01T08:31:26.249Z,3.67
2023-05-01T08:34:15.100Z,4.10
2023-05-01T08:37:03.646Z,4.20
2023-05-01T08:39:53.520Z,4.00
2023-05-01T08:42:42.287Z,5.18
2023-05-01T08:45:31.813Z,4.00
2023-05-01T08:48:20.928Z,4.00
2023-05-01T08:51:12.439Z,3.67
2023-05-01T08:54:03.064Z,3.60
2023-05-01T08:56:54.643Z,4.07
2023-05-01T08:59:43.243Z,4.68
2023-05-01T09:02:35.289Z,4.07
2023-05-01T09:05:23.917Z,4.30
2023-05-01T09:08:12.392Z,4.13
2023-05-01T09:11:02.711Z,4.10
2023-05-01T09:13:53.008Z,4.90
2023-05-01T09:16:41.577Z,3.83
2023-05-01T09:19:30.263Z,3.60
2023-05-01T09:22:20.076Z,4.45
2023-05-01T09:25:10.932Z,3.67
2023-05-01T09:27:59.449Z,4.00
2023-05-01T09:30:49.309Z,3.38
2023-05-01T09:33:54.232Z,4.20
2023-05-01T09:36:48.251Z,3.92
2023-05-01T09:39:36.922Z,3.08
2023-05-01T09:42:25.917Z,4.10
2023-05-01T09:45:15.487Z,3.20
2023-05-01T09:48:12.290Z,4.10
2023-05-01T09:51:01.173Z,3.75
2023-05-01T09:53:50.190Z,4.00
2023-05-01T09:56:48.148Z,3.75
2023-05-01T09:59:36.916Z,3.40
2023-05-01T10:02:30.996Z,3.45
2023-05-01T10:05:21.451Z,3.15
2023-05-01T10:08:14.798Z,3.28
2023-05-01T10:11:04.521Z,3.40
2023-05-01T10:14:07.857Z,4.20
2023-05-01T10:16:57.934Z,3.40
2023-05-01T10:19:47.196Z,3.67
2023-05-01T10:22:37.280Z,4.25
2023-05-01T10:25:28.623Z,4.47
2023-05-01T10:28:17.433Z,2.88
2023-05-01T10:31:07.125Z,3.72
2023-05-01T10:33:56.188Z,3.35
2023-05-01T10:36:46.873Z,4.47
2023-05-01T10:39:37.524Z,3.45
2023-05-01T10:42:26.375Z,5.00
2023-05-01T10:45:30.447Z,3.80
2023-05-01T10:48:52.334Z,4.00
2023-05-01T10:51:59.926Z,4.72
2023-05-01T10:54:49.918Z,5.03
2023-05-01T10:57:46.170Z,3.72
2023-05-01T11:00:34.908Z,4.20
2023-05-01T11:03:40.339Z,3.70
2023-05-01T11:06:29.310Z,3.70
2023-05-01T11:09:38.788Z,2.67
2023-05-01T11:12:51.742Z,2.75
2023-05-01T11:15:40.663Z,3.10
2023-05-01T11:18:47.140Z,4.28
2023-05-01T11:21:36.966Z,3.65
2023-05-01T11:24:33.149Z,2.90
2023-05-01T11:27:22.911Z,2.42
2023-05-01T11:30:14.336Z,2.22
2023-05-01T11:33:03.859Z,2.50
2023-05-01T11:36:02.233Z,2.50
2023-05-01T11:38:54.461Z,2.60
2023-05-01T11:41:43.025Z,3.83
2023-05-01T11:44:31.514Z,2.80
2023-05-01T11:47:21.465Z,2.70
2023-05-01T11:50:11.314Z,2.90
2023-05-01T11:52:59.908Z,4.50
2023-05-01T11:55:49.392Z,2.85
2023-05-01T11:58:37.900Z,2.75
2023-05-01T12:01:36.129Z,4.03
2023-05-01T12:04:31.541Z,3.10
2023-05-01T12:07:24.593Z,4.43
2023-05-01T12:10:13.239Z,2.73
2023-05-01T12:13:02.209Z,3.13
2023-05-01T12:15:53.588Z,2.10
2023-05-01T12:18:44.089Z,3.00
2023-05-01T12:21:34.101Z,5.45
2023-05-01T12:24:22.609Z,4.25
2023-05-01T12:27:11.444Z,4.07
2023-05-01T12:30:00.033Z,2.90
2023-05-01T12:32:48.628Z,4.32
2023-05-01T12:35:37.613Z,4.27
2023-05-01T12:38:27.583Z,4.13
2023-05-01T12:41:16.470Z,2.65
2023-05-01T12:44:16.839Z,3.10
2023-05-01T12:47:07.266Z,2.78
2023-05-01T12:50:03.668Z,3.50
2023-05-01T12:52:53.082Z,2.70
2023-05-01T12:55:48.146Z,2.70
2023-05-01T12:58:38.353Z,2.75
2023-05-01T13:01:28.209Z,2.92
2023-05-01T13:04:22.576Z,3.60
2023-05-01T13:07:15.825Z,3.40
2023-05-01T13:10:06.460Z,2.90
2023-05-01T13:12:56.791Z,4.32
2023-05-01T13:15:45.374Z,3.33
2023-05-01T13:18:35.046Z,3.55
2023-05-01T13:21:25.068Z,3.90
2023-05-01T13:24:14.701Z,3.53
2023-05-01T13:27:06.357Z,3.27
2023-05-01T13:29:58.187Z,4.25
2023-05-01T13:32:48.772Z,6.67
2023-05-01T13:35:39.173Z,7.10
2023-05-01T13:38:27.865Z,5.55
2023-05-01T13:41:18.507Z,6.38
2023-05-01T13:44:08.174Z,4.72
2023-05-01T13:46:58.271Z,6.10
2023-05-01T13:49:48.909Z,6.93
2023-05-01T13:52:42.414Z,5.13
2023-05-01T13:55:31.258Z,6.38
2023-05-01T13:58:20.112Z,6.50
2023-05-01T14:01:15.281Z,6.47
2023-05-01T14:04:09.586Z,5.45
2023-05-01T14:07:00.055Z,6.10
2023-05-01T14:09:51.914Z,6.68
2023-05-01T14:12:41.741Z,5.28
2023-05-01T14:15:30.805Z,4.65
2023-05-01T14:18:20.753Z,6.20
2023-05-01T14:21:11.335Z,7.07
2023-05-01T14:24:00.432Z,6.28
2023-05-01T14:26:50.574Z,6.47
2023-05-01T14:29:43.772Z,5.80
2023-05-01T14:32:33.498Z,7.65
2023-05-01T14:35:22.832Z,8.15
2023-05-01T14:38:14.814Z,7.57
2023-05-01T14:41:03.598Z,6.82
2023-05-01T14:43:53.587Z,6.60
2023-05-01T14:46:46.714Z,8.30
2023-05-01T14:49:36.002Z,7.75
2023-05-01T14:52:24.902Z,8.10
2023-05-01T14:55:16.102Z,7.88
2023-05-01T14:58:04.936Z,7.65
2023-05-01T15:00:53.641Z,8.48
2023-05-01T15:03:43.821Z,8.77
2023-05-01T15:06:34.374Z,7.65
2023-05-01T15:09:23.079Z,8.85
2023-05-01T15:12:13.351Z,10.00
2023-05-01T15:15:02.476Z,8.18
2023-05-01T15:17:52.023Z,9.23
2023-05-01T15:20:41.042Z,9.20
2023-05-01T15:23:31.265Z,8.48
2023-05-01T15:26:20.035Z,7.65
2023-05-01T15:29:09.923Z,9.23
2023-05-01T15:32:10.935Z,8.10
2023-05-01T15:35:00.992Z,6.68
2023-05-01T15:37:49.715Z,9.15
2023-05-01T15:40:38.206Z,7.05
2023-05-01T15:43:27.048Z,6.63
2023-05-01T15:46:19.841Z,7.30
2023-05-01T15:49:09.529Z,7.47
2023-05-01T15:51:57.966Z,8.07
2023-05-01T15:54:48.150Z,5.68
2023-05-01T15:57:37.219Z,7.35
2023-05-01T16:00:26.044Z,6.65
2023-05-01T16:03:16.100Z,5.97
2023-05-01T16:06:05.593Z,5.60
2023-05-01T16:08:54.259Z,7.47
2023-05-01T16:11:42.861Z,5.33
2023-05-01T16:14:31.562Z,6.15
2023-05-01T16:17:20.859Z,7.10
2023-05-01T16:20:13.264Z,6.63
2023-05-01T16:23:01.810Z,4.97
2023-05-01T16:25:50.366Z,5.28
2023-05-01T16:28:39.555Z,5.20
2023-05-01T16:31:28.303Z,5.97
2023-05-01T16:34:18.790Z,5.28
2023-05-01T16:37:09.163Z,5.05
2023-05-01T16:40:01.838Z,4.83
2023-05-01T16:42:54.888Z,4.32
2023-05-01T16:45:43.563Z,5.70
2023-05-01T16:48:32.415Z,5.15
2023-05-01T16:51:21.203Z,5.10
2023-05-01T16:54:11.534Z,6.45
2023-05-01T16:57:00.021Z,6.18
2023-05-01T16:59:48.491Z,6.50
2023-05-01T17:02:37.305Z,5.57
2023-05-01T17:05:25.906Z,5.47
2023-05-01T17:08:14.363Z,5.68
2023-05-01T17:11:07.079Z,6.03
2023-05-01T17:13:55.622Z,5.40
2023-05-01T17:16:44.291Z,5.55
2023-05-01T17:19:33.093Z,5.10
2023-05-01T17:22:23.574Z,5.50
2023-05-01T17:25:12.180Z,5.93
2023-05-01T17:28:02.022Z,5.32
2023-05-01T17:30:50.705Z,6.20
2023-05-01T17:33:39.291Z,10.35
2023-05-01T17:36:29.159Z,8.23
2023-05-01T17:39:18.626Z,7.78
2023-05-01T17:42:07.154Z,7.40
2023-05-01T17:44:56.976Z,7.90
2023-05-01T17:47:46.592Z,9.05
2023-05-01T17:50:35.255Z,6.77
2023-05-01T17:53:24.273Z,7.93
2023-05-01T17:56:12.806Z,8.00
2023-05-01T17:59:01.365Z,7.20
2023-05-01T18:01:51.233Z,7.47
2023-05-01T18:04:39.791Z,7.47
2023-05-01T18:07:30.494Z,7.22
2023-05-01T18:10:19.156Z,6.18
2023-05-01T18:13:07.566Z,5.30
2023-05-01T18:15:56.406Z,5.68
2023-05-01T18:18:47.066Z,4.63
2023-05-01T18:21:35.661Z,4.40
2023-05-01T18:24:24.559Z,4.10
2023-05-01T18:27:13.716Z,5.90
2023-05-01T18:30:02.567Z,5.45
2023-05-01T18:32:51.150Z,6.35
2023-05-01T18:35:43.069Z,10.00
2023-05-01T18:38:31.867Z,8.20
2023-05-01T18:41:20.507Z,7.93
2023-05-01T18:44:09.958Z,5.97
2023-05-01T18:46:58.609Z,5.03
2023-05-01T18:49:47.214Z,3.90
2023-05-01T18:52:37.840Z,3.97
2023-05-01T18:55:26.817Z,3.65
2023-05-01T18:58:15.360Z,4.57
2023-05-01T19:01:03.927Z,4.80
2023-05-01T19:03:54.697Z,4.83
2023-05-01T19:06:43.192Z,4.55
2023-05-01T19:09:33.184Z,3.75
2023-05-01T19:12:21.687Z,5.70
2023-05-01T19:15:11.226Z,5.28
2023-05-01T19:18:00.201Z,3.97
2023-05-01T19:20:48.858Z,4.53
2023-05-01T19:23:37.633Z,3.88
2023-05-01T19:26:29.319Z,3.55
2023-05-01T19:29:17.931Z,3.50
2023-05-01T19:32:07.145Z,3.40
2023-05-01T19:34:56.762Z,3.30
2023-05-01T19:37:45.417Z,3.20
2023-05-01T19:40:33.934Z,3.55
2023-05-01T19:43:23.877Z,3.40
2023-05-01T19:46:12.339Z,3.40
2023-05-01T19:49:00.958Z,4.33
2023-05-01T19:51:49.479Z,3.47
2023-05-01T19:54:38.098Z,3.85
2023-05-01T19:57:26.662Z,4.32
2023-05-01T20:00:17.096Z,3.97
2023-05-01T20:03:06.084Z,3.80
2023-05-01T20:05:54.554Z,4.00
2023-05-01T20:08:43.623Z,4.32
2023-05-01T20:11:32.310Z,4.37
2023-05-01T20:14:20.877Z,4.30
2023-05-01T20:17:10.853Z,4.82
2023-05-01T20:19:59.953Z,4.95
2023-05-01T20:22:48.590Z,5.70
2023-05-01T20:25:37.342Z,5.57
2023-05-01T20:28:25.877Z,7.00
2023-05-01T20:31:14.561Z,5.20
2023-05-01T20:34:04.440Z,5.28
2023-05-01T20:36:53.012Z,5.40
2023-05-01T20:39:41.507Z,5.22
2023-05-01T20:42:30.040Z,5.03
2023-05-01T20:45:19.024Z,6.03
2023-05-01T20:48:07.676Z,5.43
2023-05-01T20:50:57.674Z,5.03
2023-05-01T20:53:46.148Z,6.40
2023-05-01T20:56:34.697Z,5.10
2023-05-01T20:59:23.324Z,5.20
2023-05-01T21:02:11.887Z,5.70
2023-05-01T21:05:00.493Z,6.30
2023-05-01T21:07:50.505Z,7.25
2023-05-01T21:10:39.040Z,6.65
2023-05-01T21:13:28.693Z,7.20
2023-05-01T21:16:18.930Z,6.32
2023-05-01T21:19:07.969Z,5.78
2023-05-01T21:21:56.724Z,6.70
2023-05-01T21:24:49.058Z,5.75
2023-05-01T21:27:41.600Z,5.50
2023-05-01T21:30:33.497Z,5.00
2023-05-01T21:33:22.258Z,4.80
2023-05-01T21:36:11.853Z,5.30
2023-05-01T21:39:02.293Z,5.07
2023-05-01T21:41:52.364Z,4.60
2023-05-01T21:44:41.055Z,4.68
2023-05-01T21:47:29.767Z,5.15
2023-05-01T21:50:20.946Z,5.72
2023-05-01T21:53:09.451Z,4.13
2023-05-01T21:55:58.013Z,4.05
2023-05-01T21:58:47.878Z,4.68
2023-05-01T22:01:39.199Z,4.18
2023-05-01T22:04:27.710Z,4.30
2023-05-01T22:07:16.573Z,4.90
2023-05-01T22:10:05.615Z,4.13
2023-05-01T22:12:54.330Z,4.38
2023-05-01T22:15:44.489Z,4.13
2023-05-01T22:18:33.208Z,4.10
2023-05-01T22:21:21.681Z,4.30
2023-05-01T22:24:10.142Z,4.50
2023-05-01T22:26:58.626Z,3.95
2023-05-01T22:29:47.181Z,4.28
2023-05-01T22:32:37.412Z,4.75
2023-05-01T22:35:26.278Z,4.80
2023-05-01T22:38:15.118Z,4.38
2023-05-01T22:41:04.007Z,5.32
2023-05-01T22:43:53.127Z,6.53
2023-05-01T22:46:44.486Z,6.00
2023-05-01T22:49:34.833Z,5.93
2023-05-01T22:52:23.698Z,7.07
2023-05-01T22:55:12.756Z,5.67
2023-05-01T22:58:01.679Z,6.20
2023-05-01T23:00:50.585Z,6.90
2023-05-01T23:03:39.502Z,6.80
2023-05-01T23:06:29.671Z,6.05
2023-05-01T23:09:18.925Z,5.88
2023-05-01T23:12:08.553Z,6.28
2023-05-01T23:14:57.666Z,5.70
2023-05-01T23:17:47.049Z,6.20
2023-05-01T23:20:39.943Z,5.53
2023-05-01T23:23:31.617Z,6.45
2023-05-01T23:26:25.901Z,5.78
2023-05-01T23:29:16.156Z,6.85
2023-05-01T23:32:05.712Z,6.68
2023-05-01T23:34:55.197Z,6.78
2023-05-01T23:37:43.908Z,7.05
2023-05-01T23:40:33.982Z,6.40
2023-05-01T23:43:22.511Z,8.33
2023-05-01T23:46:11.771Z,6.57
2023-05-01T23:49:00.403Z,8.27
2023-05-01T23:51:49.122Z,7.45
2023-05-01T23:54:37.649Z,7.85
2023-05-01T23:57:27.673Z,7.47
